createdAt,value
2023-05-04T00:02:19.137Z,12.25
2023-05-04T00:04:47.558Z,10.80
2023-05-04T00:07:17.694Z,9.20
2023-05-04T00:09:46.156Z,13.30
2023-05-04T00:12:14.590Z,10.48
2023-05-04T00:14:43.174Z,12.55
2023-05-04T00:17:12.623Z,13.35
2023-05-04T00:19:42.283Z,11.18
2023-05-04T00:22:12.263Z,11.70
2023-05-04T00:24:43.166Z,10.25
2023-05-04T00:27:11.968Z,10.07
2023-05-04T00:29:40.431Z,13.23
2023-05-04T00:32:10.585Z,11.15
2023-05-04T00:34:39.004Z,14.23
2023-05-04T00:37:08.008Z,11.18
2023-05-04T00:39:36.446Z,11.10
2023-05-04T00:42:06.714Z,11.18
2023-05-04T00:44:35.865Z,10.05
2023-05-04T00:47:04.511Z,10.52
2023-05-04T00:49:32.989Z,10.30
2023-05-04T00:52:03.818Z,12.48
2023-05-04T00:54:32.791Z,11.45
2023-05-04T00:57:02.042Z,13.82
2023-05-04T00:59:32.550Z,11.95
2023-05-04T01:02:01.039Z,12.27
2023-05-04T01:04:29.646Z,12.75
2023-05-04T01:07:04.626Z,12.40
2023-05-04T01:09:39.730Z,11.55
2023-05-04T01:12:13.152Z,11.45
2023-05-04T01:14:44.423Z,11.77
2023-05-04T01:17:13.221Z,12.98
2023-05-04T01:19:41.757Z,17.10
2023-05-04T01:22:11.777Z,10.85
2023-05-04T01:24:40.623Z,10.60
2023-05-04T01:27:12.572Z,10.75
2023-05-04T01:29:50.235Z,10.95
2023-05-04T01:32:19.377Z,13.52
2023-05-04T01:34:48.018Z,13.35
2023-05-04T01:37:17.786Z,11.93
2023-05-04T01:39:46.389Z,12.55
2023-05-04T01:42:14.821Z,13.70
2023-05-04T01:44:45.383Z,10.70
2023-05-04T01:47:14.144Z,13.63
2023-05-04T01:49:43.064Z,10.80
2023-05-04T01:52:11.938Z,13.65
2023-05-04T01:54:41.674Z,11.98
2023-05-04T01:57:10.115Z,11.32
2023-05-04T01:59:38.774Z,14.13
2023-05-04T02:02:07.219Z,10.48
2023-05-04T02:04:36.292Z,11.63
2023-05-04T02:07:04.770Z,13.88
2023-05-04T02:09:33.149Z,12.10
2023-05-04T02:12:03.184Z,11.95
2023-05-04T02:14:31.804Z,13.15
2023-05-04T02:17:00.176Z,12.95
2023-05-04T02:19:28.546Z,10.82
2023-05-04T02:21:56.958Z,13.07
2023-05-04T02:24:25.500Z,13.45
2023-05-04T02:26:53.904Z,10.82
2023-05-04T02:29:24.141Z,11.82
2023-05-04T02:31:52.714Z,12.10
2023-05-04T02:34:21.374Z,13.82
2023-05-04T02:36:49.779Z,11.55
2023-05-04T02:39:18.336Z,12.80
2023-05-04T02:41:46.807Z,13.68
2023-05-04T02:44:15.319Z,12.63
2023-05-04T02:46:45.390Z,13.65
2023-05-04T02:49:13.833Z,11.95
2023-05-04T02:51:42.155Z,14.73
2023-05-04T02:54:10.532Z,13.00
2023-05-04T02:56:38.894Z,13.48
2023-05-04T02:59:07.692Z,13.10
2023-05-04T03:01:36.126Z,13.35
2023-05-04T03:04:07.937Z,15.52
2023-05-04T03:06:37.299Z,14.57
2023-05-04T03:09:08.583Z,14.15
2023-05-04T03:11:38.239Z,12.32
2023-05-04T03:14:07.351Z,12.35
2023-05-04T03:16:36.123Z,12.15
2023-05-04T03:19:06.189Z,12.30
2023-05-04T03:21:34.703Z,15.48
2023-05-04T03:24:03.037Z,13.20
2023-05-04T03:26:31.608Z,10.20
2023-05-04T03:28:59.995Z,12.55
2023-05-04T03:31:28.444Z,13.55
2023-05-04T03:33:57.597Z,13.73
2023-05-04T03:36:27.372Z,11.93
2023-05-04T03:38:55.821Z,11.75
2023-05-04T03:41:24.186Z,12.35
2023-05-04T03:43:52.630Z,10.77
2023-05-04T03:46:21.074Z,12.63
2023-05-04T03:48:49.380Z,12.13
2023-05-04T03:51:19.933Z,11.32
2023-05-04T03:53:49.623Z,11.95
2023-05-04T03:56:19.681Z,13.40
2023-05-04T03:58:48.405Z,11.25
2023-05-04T04:01:20.945Z,11.07
2023-05-04T04:03:49.439Z,9.35
2023-05-04T04:06:20.061Z,10.88
2023-05-04T04:08:49.842Z,11.18
2023-05-04T04:11:18.179Z,10.30
2023-05-04T04:13:46.794Z,9.73
2023-05-04T04:16:16.143Z,8.98
2023-05-04T04:18:44.760Z,11.07
2023-05-04T04:21:13.279Z,9.27
2023-05-04T04:23:41.746Z,12.02
2023-05-04T04:26:11.733Z,8.35
2023-05-04T04:28:40.086Z,11.65
2023-05-04T04:31:09.305Z,9.52
2023-05-04T04:33:37.776Z,9.07
2023-05-04T04:36:06.424Z,8.68
2023-05-04T04:38:34.995Z,10.55
2023-05-04T04:41:03.367Z,9.80
2023-05-04T04:43:34.405Z,8.18
2023-05-04T04:46:03.847Z,8.73
2023-05-04T04:48:32.220Z,6.20
2023-05-04T04:51:00.579Z,9.73
2023-05-04T04:53:29.007Z,7.28
2023-05-04T04:55:57.533Z,7.45
2023-05-04T04:58:26.436Z,10.38
2023-05-04T05:00:58.302Z,9.27
2023-05-04T05:03:26.867Z,6.78
2023-05-04T05:05:55.680Z,6.15
2023-05-04T05:08:24.323Z,6.28
2023-05-04T05:10:52.835Z,8.30
2023-05-04T05:13:21.265Z,8.07
2023-05-04T05:15:49.666Z,8.30
2023-05-04T05:18:19.399Z,6.30
2023-05-04T05:20:48.451Z,8.35
2023-05-04T05:23:17.403Z,6.32
2023-05-04T05:25:45.788Z,7.38
2023-05-04T05:28:14.547Z,5.78
2023-05-04T05:30:43.104Z,5.55
2023-05-04T05:33:11.627Z,6.20
2023-05-04T05:35:41.452Z,8.95
2023-05-04T05:38:10.846Z,7.72
2023-05-04T05:40:39.208Z,5.18
2023-05-04T05:43:07.775Z,6.68
2023-05-04T05:45:36.385Z,7.25
2023-05-04T05:48:05.606Z,9.82
2023-05-04T05:50:34.103Z,6.20
2023-05-04T05:53:03.856Z,8.02
2023-05-04T05:55:32.238Z,5.93
2023-05-04T05:58:00.616Z,8.27
2023-05-04T06:00:28.957Z,6.18
2023-05-04T06:02:57.376Z,7.25
2023-05-04T06:05:25.805Z,5.68
2023-05-04T06:07:54.257Z,5.03
2023-05-04T06:10:24.482Z,6.95
2023-05-04T06:12:53.138Z,7.05
2023-05-04T06:15:21.538Z,6.60
2023-05-04T06:17:50.142Z,7.40
2023-05-04T06:20:18.925Z,6.40
2023-05-04T06:22:47.523Z,7.15
2023-05-04T06:25:15.973Z,6.28
2023-05-04T06:27:45.673Z,5.47
2023-05-04T06:30:15.786Z,7.28
2023-05-04T06:32:45.114Z,5.35
2023-05-04T06:35:13.831Z,4.93
2023-05-04T06:37:42.527Z,4.55
2023-05-04T06:40:11.868Z,6.07
2023-05-04T06:42:40.672Z,10.88
2023-05-04T06:45:10.994Z,5.22
2023-05-04T06:47:39.416Z,8.13
2023-05-04T06:50:09.400Z,6.22
2023-05-04T06:52:40.009Z,8.98
2023-05-04T06:55:09.043Z,6.45
2023-05-04T06:57:37.624Z,7.13
2023-05-04T07:00:08.230Z,10.25
2023-05-04T07:02:38.056Z,10.07
2023-05-04T07:05:07.050Z,5.80
2023-05-04T07:07:35.444Z,5.53
2023-05-04T07:10:03.876Z,5.72
2023-05-04T07:12:32.668Z,6.80
2023-05-04T07:15:01.056Z,7.13
2023-05-04T07:17:32.165Z,5.88
2023-05-04T07:20:04.556Z,6.88
2023-05-04T07:22:33.272Z,9.30
2023-05-04T07:25:02.077Z,9.77
2023-05-04T07:27:30.512Z,34.58
2023-05-04T07:29:59.130Z,66.40
2023-05-04T07:32:27.667Z,7.07
2023-05-04T07:34:56.454Z,7.05
2023-05-04T07:37:26.352Z,7.65
2023-05-04T07:39:54.699Z,5.05
2023-05-04T07:42:23.495Z,5.88
2023-05-04T07:44:53.009Z,4.13
2023-05-04T07:47:21.772Z,4.63
2023-05-04T07:49:51.034Z,3.85
2023-05-04T07:52:19.507Z,5.80
2023-05-04T07:54:53.102Z,6.70
2023-05-04T07:57:21.828Z,4.50
2023-05-04T07:59:50.242Z,4.38
2023-05-04T08:02:18.614Z,4.03
2023-05-04T08:04:47.006Z,3.30
2023-05-04T08:07:17.026Z,6.07
2023-05-04T08:09:45.429Z,3.30
2023-05-04T08:12:15.442Z,2.80
2023-05-04T08:14:43.987Z,3.70
2023-05-04T08:17:12.463Z,3.78
2023-05-04T08:19:40.795Z,4.97
2023-05-04T08:22:10.269Z,2.95
2023-05-04T08:24:39.163Z,4.85
2023-05-04T08:27:09.422Z,3.95
2023-05-04T08:29:39.852Z,3.83
2023-05-04T08:32:08.452Z,3.92
2023-05-04T08:34:38.383Z,3.63
2023-05-04T08:37:06.767Z,4.07
2023-05-04T08:39:35.607Z,3.30
2023-05-04T08:42:04.256Z,2.92
2023-05-04T08:44:32.666Z,4.38
2023-05-04T08:47:04.639Z,2.83
2023-05-04T08:49:33.350Z,5.75
2023-05-04T08:52:03.428Z,3.20
2023-05-04T08:54:31.975Z,9.25
2023-05-04T08:57:02.239Z,4.85
2023-05-04T08:59:32.562Z,3.28
2023-05-04T09:02:04.002Z,3.67
2023-05-04T09:04:32.686Z,3.60
2023-05-04T09:07:01.176Z,3.63
2023-05-04T09:09:31.550Z,4.30
2023-05-04T09:12:00.322Z,5.57
2023-05-04T09:14:34.567Z,8.27
2023-05-04T09:17:13.536Z,6.35
2023-05-04T09:19:44.169Z,6.32
2023-05-04T09:22:17.604Z,7.35
2023-05-04T09:24:47.318Z,5.57
2023-05-04T09:27:18.092Z,6.60
2023-05-04T09:29:54.584Z,3.13
2023-05-04T09:32:24.582Z,3.05
2023-05-04T09:34:54.117Z,3.70
2023-05-04T09:37:23.827Z,3.75
2023-05-04T09:39:56.886Z,2.85
2023-05-04T09:42:26.565Z,5.07
2023-05-04T09:45:03.228Z,3.22
2023-05-04T09:47:36.044Z,3.92
2023-05-04T09:50:17.648Z,3.08
2023-05-04T09:52:48.279Z,2.33
2023-05-04T09:55:18.173Z,2.45
2023-05-04T09:57:50.120Z,2.83
2023-05-04T10:00:19.686Z,2.33
2023-05-04T10:02:50.310Z,2.55
2023-05-04T10:05:21.590Z,2.55
2023-05-04T10:07:51.012Z,3.53
2023-05-04T10:10:19.404Z,2.20
2023-05-04T10:12:48.139Z,3.38
2023-05-04T10:15:17.832Z,3.45
2023-05-04T10:18:02.001Z,2.65
2023-05-04T10:20:45.903Z,3.25
2023-05-04T10:23:35.178Z,2.57
2023-05-04T10:26:23.351Z,2.30
2023-05-04T10:29:04.945Z,2.13
2023-05-04T10:31:40.887Z,2.35
2023-05-04T10:34:11.813Z,2.65
2023-05-04T10:36:41.619Z,2.50
2023-05-04T10:39:19.286Z,3.63
2023-05-04T10:42:01.581Z,2.38
2023-05-04T10:44:31.221Z,2.42
2023-05-04T10:47:05.132Z,11.95
2023-05-04T10:49:36.060Z,2.78
2023-05-04T10:52:12.217Z,2.40
2023-05-04T10:54:42.001Z,2.85
2023-05-04T10:57:12.441Z,2.58
2023-05-04T10:59:42.295Z,2.50
2023-05-04T11:02:11.625Z,3.88
2023-05-04T11:04:41.841Z,2.10
2023-05-04T11:07:10.461Z,2.42
2023-05-04T11:09:40.300Z,2.50
2023-05-04T11:12:11.438Z,2.78
2023-05-04T11:14:42.971Z,4.50
2023-05-04T11:17:27.565Z,2.83
2023-05-04T11:19:58.775Z,3.45
2023-05-04T11:22:27.439Z,2.35
2023-05-04T11:24:56.462Z,3.22
2023-05-04T11:27:26.078Z,2.40
2023-05-04T11:29:59.593Z,2.00
2023-05-04T11:32:35.797Z,2.10
2023-05-04T11:35:09.015Z,2.03
2023-05-04T11:37:41.845Z,2.30
2023-05-04T11:40:13.287Z,3.35
2023-05-04T11:42:42.649Z,1.90
2023-05-04T11:45:14.301Z,2.25
2023-05-04T11:47:43.341Z,2.05
2023-05-04T11:50:14.425Z,1.98
2023-05-04T11:52:43.614Z,3.28
2023-05-04T11:55:13.333Z,1.95
2023-05-04T11:57:41.755Z,2.30
2023-05-04T12:00:11.561Z,1.80
2023-05-04T12:02:40.290Z,2.65
2023-05-04T12:05:14.969Z,1.95
2023-05-04T12:07:43.481Z,3.63
2023-05-04T12:10:11.988Z,2.17
2023-05-04T12:12:40.852Z,3.15
2023-05-04T12:15:11.727Z,1.85
2023-05-04T12:17:41.274Z,2.50
2023-05-04T12:20:09.895Z,2.55
2023-05-04T12:22:39.645Z,2.88
2023-05-04T12:25:09.274Z,3.00
2023-05-04T12:27:41.727Z,3.45
2023-05-04T12:30:12.357Z,3.08
2023-05-04T12:32:40.892Z,3.45
2023-05-04T12:35:10.021Z,2.67
2023-05-04T12:37:39.853Z,5.75
2023-05-04T12:40:21.199Z,3.38
2023-05-04T12:42:56.818Z,2.58
2023-05-04T12:45:25.324Z,2.72
2023-05-04T12:47:54.107Z,3.47
2023-05-04T12:50:22.655Z,2.60
2023-05-04T12:52:52.671Z,2.88
2023-05-04T12:55:22.810Z,4.22
2023-05-04T12:57:53.396Z,2.92
2023-05-04T13:00:22.683Z,4.45
2023-05-04T13:02:51.386Z,3.85
2023-05-04T13:05:20.824Z,3.80
2023-05-04T13:07:49.396Z,2.35
2023-05-04T13:10:19.635Z,2.97
2023-05-04T13:12:48.608Z,3.22
2023-05-04T13:15:17.193Z,3.42
2023-05-04T13:17:45.664Z,3.95
2023-05-04T13:20:14.776Z,2.58
2023-05-04T13:22:43.357Z,3.53
2023-05-04T13:25:12.037Z,3.58
2023-05-04T13:27:41.800Z,3.53
2023-05-04T13:30:12.246Z,3.40
2023-05-04T13:32:41.955Z,3.40
2023-05-04T13:35:10.916Z,2.75
2023-05-04T13:37:39.256Z,3.20
2023-05-04T13:40:08.913Z,3.38
2023-05-04T13:42:37.653Z,3.45
2023-05-04T13:45:09.491Z,4.28
2023-05-04T13:47:38.208Z,3.33
2023-05-04T13:50:07.802Z,2.88
2023-05-04T13:52:36.461Z,2.20
2023-05-04T13:55:05.825Z,2.85
2023-05-04T13:57:34.480Z,2.38
2023-05-04T14:00:07.228Z,4.03
2023-05-04T14:02:41.217Z,3.72
2023-05-04T14:05:10.362Z,2.08
2023-05-04T14:07:38.910Z,3.80
2023-05-04T14:10:08.194Z,3.65
2023-05-04T14:12:37.084Z,2.85
2023-05-04T14:15:07.114Z,3.08
2023-05-04T14:17:35.835Z,3.90
2023-05-04T14:20:06.410Z,2.70
2023-05-04T14:22:37.261Z,2.58
2023-05-04T14:25:07.348Z,3.95
2023-05-04T14:27:35.902Z,3.58
2023-05-04T14:30:05.136Z,3.47
2023-05-04T14:32:33.901Z,3.25
2023-05-04T14:35:06.365Z,2.40
2023-05-04T14:37:38.756Z,2.70
2023-05-04T14:40:09.170Z,2.08
2023-05-04T14:42:38.252Z,2.38
2023-05-04T14:45:08.372Z,2.10
2023-05-04T14:47:37.150Z,2.72
2023-05-04T14:50:07.613Z,3.38
2023-05-04T14:52:37.673Z,2.28
2023-05-04T14:55:06.814Z,2.92
2023-05-04T14:57:35.389Z,3.92
2023-05-04T15:00:07.949Z,3.08
2023-05-04T15:02:38.631Z,3.67
2023-05-04T15:05:09.669Z,2.30
2023-05-04T15:07:39.516Z,3.97
2023-05-04T15:10:09.680Z,3.45
2023-05-04T15:12:39.491Z,2.58
2023-05-04T15:15:08.946Z,2.10
2023-05-04T15:17:37.355Z,5.50
2023-05-04T15:20:07.281Z,1.90
2023-05-04T15:22:36.063Z,2.28
2023-05-04T15:25:06.532Z,2.78
2023-05-04T15:27:35.089Z,2.60
2023-05-04T15:30:03.724Z,3.53
2023-05-04T15:32:33.612Z,5.45
2023-05-04T15:35:07.939Z,3.55
2023-05-04T15:37:36.662Z,3.03
2023-05-04T15:40:08.476Z,3.78
2023-05-04T15:42:37.095Z,2.78
2023-05-04T15:45:07.321Z,1.80
2023-05-04T15:47:37.359Z,1.70
2023-05-04T15:50:07.917Z,3.65
2023-05-04T15:52:36.628Z,2.72
2023-05-04T15:55:23.397Z,2.80
2023-05-04T15:57:53.728Z,2.05
2023-05-04T16:00:22.760Z,2.60
2023-05-04T16:02:51.275Z,2.03
2023-05-04T16:05:20.230Z,3.78
2023-05-04T16:07:49.503Z,2.15
2023-05-04T16:10:19.289Z,2.70
2023-05-04T16:12:47.744Z,2.30
2023-05-04T16:15:16.589Z,2.35
2023-05-04T16:17:45.013Z,2.10
2023-05-04T16:20:13.513Z,3.20
2023-05-04T16:22:41.970Z,3.00
2023-05-04T16:25:11.508Z,2.10
2023-05-04T16:27:42.077Z,2.42
2023-05-04T16:30:11.351Z,1.63
2023-05-04T16:32:39.761Z,1.95
2023-05-04T16:35:09.123Z,3.08
2023-05-04T16:37:38.111Z,3.95
2023-05-04T16:40:11.265Z,2.10
2023-05-04T16:42:39.700Z,3.05
2023-05-04T16:45:11.268Z,2.35
2023-05-04T16:47:41.442Z,2.80
2023-05-04T16:50:10.709Z,4.05
2023-05-04T16:52:40.131Z,4.47
2023-05-04T16:55:11.881Z,2.35
2023-05-04T16:57:41.179Z,3.78
2023-05-04T17:00:13.275Z,3.45
2023-05-04T17:02:42.362Z,2.67
2023-05-04T17:05:11.236Z,2.75
2023-05-04T17:07:42.978Z,3.30
2023-05-04T17:10:12.289Z,3.20
2023-05-04T17:12:40.740Z,3.85
2023-05-04T17:15:12.161Z,3.55
2023-05-04T17:17:41.203Z,4.28
2023-05-04T17:20:14.449Z,5.10
2023-05-04T17:22:44.331Z,4.07
2023-05-04T17:25:13.302Z,2.97
2023-05-04T17:27:43.667Z,2.75
2023-05-04T17:30:14.449Z,2.60
2023-05-04T17:32:43.016Z,3.42
2023-05-04T17:35:20.906Z,4.38
2023-05-04T17:37:57.015Z,6.35
2023-05-04T17:40:27.389Z,4.75
2023-05-04T17:42:56.451Z,8.77
2023-05-04T17:45:26.370Z,5.90
2023-05-04T17:47:54.974Z,4.28
2023-05-04T17:50:24.436Z,4.07
2023-05-04T17:52:53.912Z,5.82
2023-05-04T17:55:23.772Z,5.18
2023-05-04T17:57:53.604Z,6.30
2023-05-04T18:00:22.449Z,3.67
2023-05-04T18:02:52.331Z,3.80
2023-05-04T18:05:20.690Z,3.25
2023-05-04T18:07:49.206Z,2.53
2023-05-04T18:10:17.676Z,3.10
2023-05-04T18:12:46.390Z,2.90
2023-05-04T18:15:16.274Z,3.65
2023-05-04T18:17:45.313Z,2.30
2023-05-04T18:20:15.716Z,3.42
2023-05-04T18:22:44.256Z,3.65
2023-05-04T18:25:13.450Z,3.63
2023-05-04T18:27:42.359Z,4.00
2023-05-04T18:30:11.531Z,4.28
2023-05-04T18:32:39.921Z,3.40
2023-05-04T18:35:09.079Z,3.80
2023-05-04T18:37:38.838Z,4.28
2023-05-04T18:40:09.750Z,3.83
2023-05-04T18:42:38.364Z,4.53
2023-05-04T18:45:07.946Z,4.47
2023-05-04T18:47:36.343Z,5.05
2023-05-04T18:50:05.619Z,3.85
2023-05-04T18:52:34.486Z,4.60
2023-05-04T18:55:04.605Z,5.15
2023-05-04T18:57:32.950Z,5.28
2023-05-04T19:00:01.361Z,4.25
2023-05-04T19:02:31.487Z,7.18
2023-05-04T19:05:00.347Z,3.42
2023-05-04T19:07:28.653Z,3.88
2023-05-04T19:09:57.038Z,3.53
2023-05-04T19:12:26.821Z,3.78
2023-05-04T19:14:55.758Z,5.03
2023-05-04T19:17:24.305Z,5.43
2023-05-04T19:19:52.792Z,6.05
2023-05-04T19:22:21.287Z,5.28
2023-05-04T19:24:51.452Z,5.80
2023-05-04T19:27:19.916Z,5.25
2023-05-04T19:29:49.559Z,4.40
2023-05-04T19:32:24.298Z,5.22
2023-05-04T19:34:53.632Z,4.93
2023-05-04T19:37:22.069Z,4.97
2023-05-04T19:39:50.841Z,5.40
2023-05-04T19:42:19.264Z,5.35
2023-05-04T19:44:48.972Z,6.38
2023-05-04T19:47:17.976Z,4.82
2023-05-04T19:49:47.341Z,5.00
2023-05-04T19:52:16.208Z,5.35
2023-05-04T19:54:48.128Z,3.85
2023-05-04T19:57:16.594Z,4.78
2023-05-04T19:59:46.999Z,3.88
2023-05-04T20:02:17.140Z,3.70
2023-05-04T20:04:45.568Z,4.20
2023-05-04T20:07:13.940Z,6.47
2023-05-04T20:09:42.543Z,5.47
2023-05-04T20:12:11.238Z,3.13
2023-05-04T20:14:41.138Z,3.13
2023-05-04T20:17:09.606Z,3.30
2023-05-04T20:19:40.704Z,6.25
2023-05-04T20:22:09.215Z,3.60
2023-05-04T20:24:37.549Z,3.35
2023-05-04T20:27:06.671Z,3.63
2023-05-04T20:29:35.003Z,3.30
2023-05-04T20:32:05.044Z,3.85
2023-05-04T20:34:33.626Z,4.22
2023-05-04T20:37:03.316Z,6.18
2023-05-04T20:39:32.164Z,3.50
2023-05-04T20:42:00.734Z,4.97
2023-05-04T20:44:29.110Z,3.78
2023-05-04T20:46:57.549Z,3.30
2023-05-04T20:49:26.208Z,4.00
2023-05-04T20:51:54.547Z,4.30
2023-05-04T20:54:24.440Z,4.63
2023-05-04T20:56:52.809Z,4.00
2023-05-04T20:59:21.162Z,3.72
2023-05-04T21:01:49.698Z,3.55
2023-05-04T21:04:18.116Z,4.20
2023-05-04T21:06:48.248Z,4.85
2023-05-04T21:09:17.063Z,3.20
2023-05-04T21:11:46.928Z,3.83
2023-05-04T21:14:15.244Z,4.75
2023-05-04T21:16:43.594Z,3.35
2023-05-04T21:19:12.145Z,3.80
2023-05-04T21:21:41.663Z,5.40
2023-05-04T21:24:14.237Z,3.78
2023-05-04T21:26:43.067Z,3.58
2023-05-04T21:29:13.254Z,3.33
2023-05-04T21:31:42.248Z,3.30
2023-05-04T21:34:11.225Z,3.70
2023-05-04T21:36:40.298Z,3.55
2023-05-04T21:39:09.162Z,4.15
2023-05-04T21:41:37.650Z,4.13
2023-05-04T21:44:06.074Z,5.75
2023-05-04T21:46:35.812Z,3.83
2023-05-04T21:49:04.147Z,3.90
2023-05-04T21:51:32.643Z,4.20
2023-05-04T21:54:01.980Z,4.35
2023-05-04T21:56:30.626Z,5.18
2023-05-04T21:58:59.325Z,4.03
2023-05-04T22:01:28.871Z,4.97
2023-05-04T22:03:58.831Z,5.13
2023-05-04T22:06:27.201Z,4.18
2023-05-04T22:08:55.680Z,5.82
2023-05-04T22:11:24.100Z,5.57
2023-05-04T22:13:53.540Z,4.00
2023-05-04T22:16:21.902Z,3.85
2023-05-04T22:18:50.469Z,5.00
2023-05-04T22:21:20.438Z,5.32
2023-05-04T22:23:48.976Z,4.00
2023-05-04T22:26:18.041Z,4.97
2023-05-04T22:28:46.540Z,4.32
2023-05-04T22:31:15.010Z,3.90
2023-05-04T22:33:43.505Z,4.22
2023-05-04T22:36:12.495Z,5.50
2023-05-04T22:38:44.759Z,4.57
2023-05-04T22:41:14.271Z,3.90
2023-05-04T22:43:42.774Z,4.30
2023-05-04T22:46:15.626Z,3.97
2023-05-04T22:48:44.353Z,4.70
2023-05-04T22:51:13.075Z,4.75
2023-05-04T22:53:43.047Z,5.43
2023-05-04T22:56:11.611Z,3.92
2023-05-04T22:58:40.078Z,4.50
2023-05-04T23:01:11.590Z,5.30
2023-05-04T23:03:40.400Z,3.88
2023-05-04T23:06:09.625Z,3.83
2023-05-04T23:08:38.640Z,4.47
2023-05-04T23:11:08.422Z,5.55
2023-05-04T23:13:37.520Z,4.05
2023-05-04T23:16:07.423Z,4.63
2023-05-04T23:18:35.967Z,6.38
2023-05-04T23:21:04.887Z,4.68
2023-05-04T23:23:33.403Z,4.65
2023-05-04T23:26:01.862Z,6.20
2023-05-04T23:28:31.718Z,6.43
2023-05-04T23:31:00.203Z,5.50
2023-05-04T23:33:28.573Z,5.55
2023-05-04T23:35:56.971Z,4.90
2023-05-04T23:38:25.353Z,6.13
2023-05-04T23:40:53.805Z,4.43
2023-05-04T23:43:23.521Z,5.47
2023-05-04T23:46:00.321Z,4.70
2023-05-04T23:48:29.023Z,6.00
2023-05-04T23:50:58.775Z,5.85
2023-05-04T23:53:27.132Z,5.47
2023-05-04T23:56:01.958Z,6.25
2023-05-04T23:58:32.697Z,6.57
